Terminal Aerodrome Forecast
Issued by NWS

Home | Current Version | Previous Version | Text Only | Print | Product List | Glossary On
Versions: 1 2 3 4 5 6 7 8 9 10 11 12 13 14 15 16 17 18 19 20 21 22 23 24 25
184
FTUS43 KAPX 072337
TAFPLN
TAF
KPLN 072337Z 0800/0824 26015G25KT 6SM -SHSN OVC035
     FM080400 26014G28KT 6SM -SHSN OVC025
     FM081200 27013G24KT 2SM -SHSN BLSN OVC015
     FM081500 30010G21KT 6SM -SHSN BLSN OVC015
     FM081800 33011G19KT 6SM -SHSN BLSN OVC015=

USA.gov is the U.S. government's official web portal to all federal, state and local government web resources and services.